createdAt,value
2017-10-27T00:01:45.454Z,11.17
2017-10-27T00:04:13.777Z,9.83
2017-10-27T00:06:42.010Z,12.00
2017-10-27T00:09:10.280Z,11.37
2017-10-27T00:11:38.570Z,10.43
2017-10-27T00:14:06.823Z,10.47
2017-10-27T00:16:35.126Z,10.60
2017-10-27T00:19:03.395Z,10.90
2017-10-27T00:21:31.646Z,10.00
2017-10-27T00:23:59.991Z,9.23
2017-10-27T00:26:28.261Z,10.87
2017-10-27T00:28:56.505Z,9.50
2017-10-27T00:31:24.919Z,10.30
2017-10-27T00:33:53.167Z,10.10
2017-10-27T00:36:21.460Z,8.77
2017-10-27T00:38:50.370Z,9.77
2017-10-27T00:41:18.654Z,8.70
2017-10-27T00:43:47.298Z,9.27
2017-10-27T00:46:15.568Z,8.90
2017-10-27T00:48:43.811Z,8.47
2017-10-27T00:51:12.056Z,8.37
2017-10-27T00:53:40.753Z,8.27
2017-10-27T00:56:08.992Z,8.80
2017-10-27T00:58:37.254Z,7.30
2017-10-27T01:01:05.749Z,7.47
2017-10-27T01:03:34.015Z,7.10
2017-10-27T01:06:02.342Z,6.47
2017-10-27T01:08:31.022Z,6.50
2017-10-27T01:10:59.665Z,6.90
2017-10-27T01:13:28.149Z,7.03
2017-10-27T01:15:56.459Z,5.80
2017-10-27T01:18:25.513Z,6.57
2017-10-27T01:20:53.765Z,5.80
2017-10-27T01:23:22.337Z,5.23
2017-10-27T01:25:50.590Z,5.13
2017-10-27T01:28:19.450Z,5.17
2017-10-27T01:30:47.757Z,4.90
2017-10-27T01:33:16.631Z,4.97
2017-10-27T01:35:44.921Z,5.87
2017-10-27T01:38:13.612Z,5.63
2017-10-27T01:40:42.275Z,4.93
2017-10-27T01:43:10.535Z,4.87
2017-10-27T01:45:38.829Z,4.87
2017-10-27T01:48:07.891Z,5.20
2017-10-27T01:50:36.686Z,4.50
2017-10-27T01:53:05.258Z,4.57
2017-10-27T01:55:33.494Z,5.00
2017-10-27T01:58:01.782Z,5.17
2017-10-27T02:00:30.114Z,3.93
2017-10-27T02:02:58.364Z,4.47
2017-10-27T02:05:26.750Z,4.23
2017-10-27T02:07:55.078Z,4.20
2017-10-27T02:10:23.745Z,4.03
2017-10-27T02:12:51.983Z,4.23
2017-10-27T02:15:20.266Z,4.13
2017-10-27T02:17:48.507Z,3.77
2017-10-27T02:20:16.760Z,3.83
2017-10-27T02:22:45.133Z,3.80
2017-10-27T02:25:13.368Z,3.60
2017-10-27T02:27:41.617Z,4.00
2017-10-27T02:30:09.909Z,3.70
2017-10-27T02:32:38.157Z,4.50
2017-10-27T02:35:06.436Z,3.57
2017-10-27T02:37:34.896Z,3.53
2017-10-27T02:40:03.164Z,3.53
2017-10-27T02:42:31.799Z,3.53
2017-10-27T02:45:00.854Z,4.20
2017-10-27T02:47:29.113Z,3.70
2017-10-27T02:49:57.405Z,3.30
2017-10-27T02:52:25.671Z,3.43
2017-10-27T02:54:53.923Z,3.17
2017-10-27T02:57:22.213Z,3.20
2017-10-27T02:59:50.465Z,3.30
2017-10-27T03:02:18.749Z,3.63
2017-10-27T03:04:47.033Z,3.70
2017-10-27T03:07:15.296Z,3.20
2017-10-27T03:09:43.545Z,3.30
2017-10-27T03:12:11.819Z,2.93
2017-10-27T03:14:40.060Z,3.13
2017-10-27T03:17:08.366Z,3.07
2017-10-27T03:19:36.641Z,3.63
2017-10-27T03:22:05.108Z,4.40
2017-10-27T03:24:33.365Z,3.23
2017-10-27T03:27:01.706Z,2.80
2017-10-27T03:29:29.957Z,3.13
2017-10-27T03:31:58.203Z,3.67
2017-10-27T03:34:26.928Z,2.90
2017-10-27T03:36:55.224Z,3.00
2017-10-27T03:39:23.556Z,3.00
2017-10-27T03:41:51.830Z,3.27
2017-10-27T03:44:20.093Z,2.90
2017-10-27T03:46:48.373Z,2.70
2017-10-27T03:49:17.056Z,2.50
2017-10-27T03:51:45.759Z,3.40
2017-10-27T03:54:14.021Z,2.70
2017-10-27T03:56:43.577Z,2.60
2017-10-27T03:59:11.821Z,2.80
2017-10-27T04:01:40.138Z,3.37
2017-10-27T04:04:08.368Z,2.67
2017-10-27T04:06:36.865Z,2.70
2017-10-27T04:09:05.143Z,2.70
2017-10-27T04:11:33.385Z,2.70
2017-10-27T04:14:01.880Z,2.90
2017-10-27T04:16:30.435Z,2.93
2017-10-27T04:18:58.674Z,2.67
2017-10-27T04:21:26.972Z,2.70
2017-10-27T04:23:56.167Z,3.00
2017-10-27T04:26:24.648Z,2.73
2017-10-27T04:28:52.913Z,2.60
2017-10-27T04:31:21.243Z,2.70
2017-10-27T04:33:50.186Z,2.87
2017-10-27T04:36:18.934Z,2.53
2017-10-27T04:38:47.241Z,2.90
2017-10-27T04:41:15.708Z,2.10
2017-10-27T04:43:43.972Z,2.40
2017-10-27T04:46:12.353Z,2.40
2017-10-27T04:48:40.616Z,2.37
2017-10-27T04:51:08.884Z,2.63
2017-10-27T04:53:37.240Z,2.60
2017-10-27T04:56:05.602Z,3.23
2017-10-27T04:58:34.693Z,2.70
2017-10-27T05:01:03.126Z,2.70
2017-10-27T05:03:31.654Z,2.70
2017-10-27T05:06:00.471Z,2.90
2017-10-27T05:08:28.729Z,3.63
2017-10-27T05:10:56.990Z,3.23
2017-10-27T05:13:25.325Z,2.97
2017-10-27T05:15:53.617Z,2.90
2017-10-27T05:18:27.519Z,3.40
2017-10-27T05:21:01.623Z,2.67
2017-10-27T05:23:36.619Z,3.47
2017-10-27T05:26:04.969Z,3.03
2017-10-27T05:28:33.219Z,3.20
2017-10-27T05:31:01.506Z,2.60
2017-10-27T05:33:29.759Z,3.40
2017-10-27T05:35:58.036Z,3.10
2017-10-27T05:38:26.449Z,3.73
2017-10-27T05:40:54.681Z,3.20
2017-10-27T05:43:23.163Z,3.43
2017-10-27T05:45:51.480Z,3.43
2017-10-27T05:48:19.738Z,3.30
2017-10-27T05:50:48.004Z,3.67
2017-10-27T05:53:16.281Z,3.20
2017-10-27T05:55:44.519Z,3.20
2017-10-27T05:58:13.340Z,4.30
2017-10-27T06:00:41.609Z,3.07
2017-10-27T06:03:09.875Z,3.27
2017-10-27T06:05:38.146Z,4.27
2017-10-27T06:08:06.800Z,3.23
2017-10-27T06:10:35.055Z,3.70
2017-10-27T06:13:03.563Z,2.73
2017-10-27T06:15:31.835Z,4.90
2017-10-27T06:18:00.080Z,3.00
2017-10-27T06:20:28.307Z,3.20
2017-10-27T06:22:56.937Z,2.90
2017-10-27T06:25:25.179Z,2.93
2017-10-27T06:27:53.835Z,3.93
2017-10-27T06:30:22.089Z,3.20
2017-10-27T06:32:50.357Z,4.00
2017-10-27T06:35:18.659Z,3.57
2017-10-27T06:37:46.902Z,2.50
2017-10-27T06:40:15.414Z,4.07
2017-10-27T06:42:43.701Z,3.63
2017-10-27T06:45:11.964Z,3.30
2017-10-27T06:47:41.166Z,4.00
2017-10-27T06:50:09.447Z,3.20
2017-10-27T06:52:38.775Z,3.10
2017-10-27T06:55:07.078Z,3.27
2017-10-27T06:57:35.407Z,3.40
2017-10-27T07:00:03.697Z,3.30
2017-10-27T07:02:33.266Z,3.10
2017-10-27T07:05:02.331Z,3.20
2017-10-27T07:07:30.637Z,2.60
2017-10-27T07:09:59.042Z,2.30
2017-10-27T07:12:27.317Z,2.70
2017-10-27T07:14:56.037Z,2.33
2017-10-27T07:17:24.301Z,2.67
2017-10-27T07:19:52.932Z,2.40
2017-10-27T07:22:21.242Z,2.40
2017-10-27T07:24:49.487Z,1.67
2017-10-27T07:27:17.740Z,1.80
2017-10-27T07:29:45.996Z,1.87
2017-10-27T07:32:14.271Z,1.57
2017-10-27T07:34:42.933Z,2.13
2017-10-27T07:37:11.623Z,1.90
2017-10-27T07:39:39.863Z,2.07
2017-10-27T07:42:08.143Z,2.23
2017-10-27T07:44:38.108Z,1.93
2017-10-27T07:47:06.581Z,2.73
2017-10-27T07:49:35.692Z,2.67
2017-10-27T07:52:03.938Z,2.63
2017-10-27T07:54:32.202Z,3.00
2017-10-27T07:57:00.444Z,2.70
2017-10-27T07:59:28.777Z,2.97
2017-10-27T08:01:57.229Z,2.53
2017-10-27T08:04:25.582Z,3.27
2017-10-27T08:06:53.887Z,3.00
2017-10-27T08:09:22.173Z,2.90
2017-10-27T08:11:50.666Z,3.10
2017-10-27T08:14:19.015Z,3.20
2017-10-27T08:16:47.281Z,3.13
2017-10-27T08:19:15.541Z,3.60
2017-10-27T08:21:43.850Z,2.57
2017-10-27T08:24:12.538Z,3.03
2017-10-27T08:26:41.071Z,3.13
2017-10-27T08:29:09.335Z,2.47
2017-10-27T08:31:37.614Z,2.20
2017-10-27T08:34:06.537Z,2.17
2017-10-27T08:36:34.813Z,2.30
2017-10-27T08:39:03.345Z,1.90
2017-10-27T08:41:32.009Z,2.17
2017-10-27T08:44:01.501Z,1.87
2017-10-27T08:46:30.442Z,2.30
2017-10-27T08:48:58.714Z,2.20
2017-10-27T08:51:27.391Z,2.43
2017-10-27T08:53:56.052Z,1.97
2017-10-27T08:56:25.051Z,2.50
2017-10-27T08:58:54.021Z,2.37
2017-10-27T09:01:22.350Z,2.73
2017-10-27T09:03:50.627Z,2.40
2017-10-27T09:06:18.923Z,2.00
2017-10-27T09:08:47.249Z,2.60
2017-10-27T09:11:15.569Z,1.90
2017-10-27T09:13:43.984Z,1.90
2017-10-27T09:16:13.069Z,1.80
2017-10-27T09:18:41.550Z,1.83
2017-10-27T09:21:10.443Z,2.07
2017-10-27T09:23:38.684Z,2.27
2017-10-27T09:26:07.092Z,1.70
2017-10-27T09:28:35.417Z,1.60
2017-10-27T09:31:04.214Z,2.57
2017-10-27T09:33:33.382Z,2.10
2017-10-27T09:36:01.703Z,1.80
2017-10-27T09:38:29.950Z,2.13
2017-10-27T09:40:58.616Z,2.20
2017-10-27T09:43:26.881Z,2.17
2017-10-27T09:45:55.198Z,1.90
2017-10-27T09:48:23.499Z,2.47
2017-10-27T09:50:51.850Z,1.93
2017-10-27T09:53:20.123Z,2.60
2017-10-27T09:55:48.563Z,1.70
2017-10-27T09:58:16.805Z,2.50
2017-10-27T10:00:45.063Z,2.13
2017-10-27T10:03:13.334Z,2.10
2017-10-27T10:05:42.008Z,1.80
2017-10-27T10:08:10.670Z,2.33
2017-10-27T10:10:38.941Z,2.20
2017-10-27T10:13:07.632Z,2.80
2017-10-27T10:15:35.944Z,2.50
2017-10-27T10:18:04.247Z,2.30
2017-10-27T10:20:32.538Z,1.67
2017-10-27T10:23:01.411Z,1.70
2017-10-27T10:25:29.665Z,2.03
2017-10-27T10:27:57.943Z,1.63
2017-10-27T10:30:26.273Z,1.70
2017-10-27T10:32:54.519Z,2.27
2017-10-27T10:35:22.825Z,1.50
2017-10-27T10:37:51.144Z,1.93
2017-10-27T10:40:19.413Z,1.60
2017-10-27T10:42:48.494Z,2.10
2017-10-27T10:45:16.823Z,1.63
2017-10-27T10:47:45.456Z,2.00
2017-10-27T10:50:14.370Z,1.97
2017-10-27T10:52:42.657Z,1.50
2017-10-27T10:55:11.424Z,1.63
2017-10-27T10:57:39.727Z,1.53
2017-10-27T11:00:08.007Z,1.70
2017-10-27T11:02:36.284Z,1.77
2017-10-27T11:05:04.593Z,1.37
2017-10-27T11:07:33.074Z,1.67
2017-10-27T11:10:01.350Z,1.60
2017-10-27T11:12:29.641Z,1.70
2017-10-27T11:14:57.891Z,1.63
2017-10-27T11:17:26.149Z,1.80
2017-10-27T11:19:54.657Z,1.67
2017-10-27T11:22:22.920Z,1.93
2017-10-27T11:24:51.446Z,2.00
2017-10-27T11:27:20.418Z,1.93
2017-10-27T11:29:48.703Z,2.10
2017-10-27T11:32:17.652Z,1.80
2017-10-27T11:34:46.009Z,1.93
2017-10-27T11:37:14.273Z,1.77
2017-10-27T11:39:42.969Z,1.60
2017-10-27T11:42:11.299Z,1.33
2017-10-27T11:44:39.541Z,1.60
2017-10-27T11:47:07.786Z,1.90
2017-10-27T11:49:36.437Z,2.77
2017-10-27T11:52:04.698Z,1.80
2017-10-27T11:54:33.034Z,1.60
2017-10-27T11:57:01.501Z,1.83
2017-10-27T11:59:30.148Z,1.97
2017-10-27T12:01:58.437Z,2.47
2017-10-27T12:04:26.721Z,2.00
2017-10-27T12:06:55.022Z,1.47
2017-10-27T12:09:23.297Z,2.00
2017-10-27T12:11:51.862Z,1.97
2017-10-27T12:14:20.134Z,1.60
2017-10-27T12:16:49.665Z,1.50
2017-10-27T12:19:18.343Z,2.20
2017-10-27T12:21:47.028Z,1.83
2017-10-27T12:24:15.285Z,2.20
2017-10-27T12:26:44.403Z,2.03
2017-10-27T12:29:12.678Z,1.50
2017-10-27T12:31:42.129Z,1.70
2017-10-27T12:34:10.487Z,1.77
2017-10-27T12:36:38.784Z,1.70
2017-10-27T12:39:07.052Z,2.47
2017-10-27T12:41:35.338Z,2.17
2017-10-27T12:44:03.669Z,1.97
2017-10-27T12:46:32.526Z,3.13
2017-10-27T12:49:00.773Z,2.73
2017-10-27T12:51:29.110Z,4.03
2017-10-27T12:53:57.373Z,3.00
2017-10-27T12:56:25.633Z,2.20
2017-10-27T12:58:53.952Z,2.60
2017-10-27T13:01:22.288Z,2.40
2017-10-27T13:03:50.536Z,1.90
2017-10-27T13:06:18.822Z,2.77
2017-10-27T13:08:47.090Z,2.30
2017-10-27T13:11:15.380Z,2.47
2017-10-27T13:13:43.716Z,2.50
2017-10-27T13:16:12.074Z,2.47
2017-10-27T13:18:40.404Z,2.20
2017-10-27T13:21:08.873Z,2.13
2017-10-27T13:23:37.813Z,2.00
2017-10-27T13:26:06.499Z,1.67
2017-10-27T13:28:35.150Z,2.30
2017-10-27T13:31:03.416Z,1.80
2017-10-27T13:33:31.877Z,2.03
2017-10-27T13:36:00.168Z,2.10
2017-10-27T13:38:28.444Z,1.60
2017-10-27T13:40:56.739Z,3.00
2017-10-27T13:43:24.981Z,1.80
2017-10-27T13:45:53.233Z,1.90
2017-10-27T13:48:21.513Z,1.63
2017-10-27T13:50:50.096Z,1.97
2017-10-27T13:53:18.553Z,1.80
2017-10-27T13:55:47.028Z,2.10
2017-10-27T13:58:15.719Z,1.83
2017-10-27T14:00:44.742Z,2.90
2017-10-27T14:03:13.478Z,2.30
2017-10-27T14:05:41.809Z,1.90
2017-10-27T14:08:10.221Z,1.90
2017-10-27T14:10:38.535Z,2.43
2017-10-27T14:13:06.866Z,2.30
2017-10-27T14:15:35.191Z,1.87
2017-10-27T14:18:04.403Z,1.93
2017-10-27T14:20:33.066Z,1.90
2017-10-27T14:23:01.340Z,2.30
2017-10-27T14:25:29.708Z,2.50
2017-10-27T14:27:58.167Z,2.53
2017-10-27T14:30:26.629Z,2.33
2017-10-27T14:32:54.996Z,2.53
2017-10-27T14:35:23.535Z,1.90
2017-10-27T14:37:51.873Z,2.53
2017-10-27T14:40:20.172Z,1.90
2017-10-27T14:42:48.450Z,2.17
2017-10-27T14:45:16.828Z,3.00
2017-10-27T14:47:45.096Z,21.03
2017-10-27T14:50:13.421Z,1.63
2017-10-27T14:52:41.728Z,1.90
2017-10-27T14:55:09.968Z,2.07
2017-10-27T14:57:38.971Z,1.70
2017-10-27T15:00:07.282Z,1.90
2017-10-27T15:02:35.541Z,2.20
2017-10-27T15:05:03.881Z,2.27
2017-10-27T15:07:32.566Z,1.63
2017-10-27T15:10:01.087Z,1.50
2017-10-27T15:12:29.418Z,2.20
2017-10-27T15:14:57.775Z,2.73
2017-10-27T15:17:26.051Z,2.70
2017-10-27T15:19:54.435Z,2.60
2017-10-27T15:22:22.711Z,5.03
2017-10-27T15:24:51.231Z,5.10
2017-10-27T15:27:19.759Z,5.67
2017-10-27T15:29:48.013Z,6.13
2017-10-27T15:32:16.321Z,4.73
2017-10-27T15:34:44.602Z,3.20
2017-10-27T15:37:13.080Z,2.93
2017-10-27T15:39:41.842Z,2.23
2017-10-27T15:42:10.574Z,1.70
2017-10-27T15:44:40.564Z,1.33
2017-10-27T15:47:08.822Z,1.97
2017-10-27T15:49:37.095Z,5.10
2017-10-27T15:52:05.375Z,2.27
2017-10-27T15:54:34.357Z,1.77
2017-10-27T15:57:02.953Z,1.67
2017-10-27T15:59:31.176Z,1.70
2017-10-27T16:01:59.427Z,1.60
2017-10-27T16:04:27.703Z,1.60
2017-10-27T16:06:56.087Z,1.33
2017-10-27T16:09:24.354Z,1.60
2017-10-27T16:11:53.324Z,2.23
2017-10-27T16:14:23.793Z,1.83
2017-10-27T16:16:52.100Z,1.70
2017-10-27T16:19:20.396Z,1.53
2017-10-27T16:21:49.261Z,1.60
2017-10-27T16:24:17.559Z,1.30
2017-10-27T16:26:45.903Z,1.27
2017-10-27T16:29:14.421Z,1.40
2017-10-27T16:31:57.690Z,1.87
2017-10-27T16:34:25.929Z,2.97
2017-10-27T16:36:54.290Z,1.70
2017-10-27T16:39:22.586Z,1.77
2017-10-27T16:41:50.884Z,1.80
2017-10-27T16:44:19.176Z,1.67
2017-10-27T16:46:47.469Z,1.57
2017-10-27T16:49:15.804Z,1.63
2017-10-27T16:51:44.136Z,1.50
2017-10-27T16:54:12.441Z,2.07
2017-10-27T16:56:40.661Z,1.50
2017-10-27T16:59:09.033Z,1.87
2017-10-27T17:01:37.313Z,1.40
2017-10-27T17:04:05.554Z,1.50
2017-10-27T17:06:33.810Z,1.67
2017-10-27T17:09:02.099Z,1.60
2017-10-27T17:11:30.350Z,1.70
2017-10-27T17:13:58.991Z,1.70
2017-10-27T17:16:27.500Z,1.90
2017-10-27T17:18:55.751Z,2.30
2017-10-27T17:21:24.016Z,1.83
2017-10-27T17:23:52.524Z,1.97
2017-10-27T17:26:20.776Z,1.73
2017-10-27T17:28:49.019Z,1.97
2017-10-27T17:31:18.120Z,5.50
2017-10-27T17:33:46.376Z,1.93
2017-10-27T17:36:14.645Z,3.73
2017-10-27T17:38:43.215Z,1.87
2017-10-27T17:41:11.472Z,2.07
2017-10-27T17:43:40.301Z,1.83
2017-10-27T17:46:08.763Z,1.70
2017-10-27T17:48:37.459Z,2.53
2017-10-27T17:51:05.733Z,2.00
2017-10-27T17:53:35.477Z,1.70
2017-10-27T17:56:03.712Z,2.13
2017-10-27T17:58:32.059Z,2.20
2017-10-27T18:01:00.305Z,1.70
2017-10-27T18:03:28.587Z,1.90
2017-10-27T18:05:57.305Z,2.10
2017-10-27T18:08:26.021Z,1.57
2017-10-27T18:10:54.310Z,2.30
2017-10-27T18:13:22.609Z,1.90
2017-10-27T18:15:50.861Z,2.07
2017-10-27T18:18:19.162Z,2.40
2017-10-27T18:20:47.454Z,4.60
2017-10-27T18:23:15.919Z,2.43
2017-10-27T18:25:44.182Z,3.37
2017-10-27T18:28:13.496Z,2.73
2017-10-27T18:30:41.774Z,2.10
2017-10-27T18:33:10.048Z,2.13
2017-10-27T18:35:38.306Z,2.27
2017-10-27T18:38:06.601Z,2.10
2017-10-27T18:40:35.062Z,2.70
2017-10-27T18:43:04.134Z,1.73
2017-10-27T18:45:32.431Z,2.20
2017-10-27T18:48:00.838Z,2.23
2017-10-27T18:50:29.107Z,2.00
2017-10-27T18:52:57.371Z,2.43
2017-10-27T18:55:26.105Z,2.57
2017-10-27T18:57:54.357Z,2.73
2017-10-27T19:00:22.597Z,2.10
2017-10-27T19:02:51.069Z,2.70
2017-10-27T19:05:19.396Z,2.00
2017-10-27T19:07:48.573Z,2.43
2017-10-27T19:10:17.201Z,2.20
2017-10-27T19:12:45.467Z,2.03
2017-10-27T19:15:13.708Z,2.30
2017-10-27T19:17:42.394Z,2.13
2017-10-27T19:20:11.653Z,5.40
2017-10-27T19:22:39.891Z,3.40
2017-10-27T19:25:08.241Z,4.27
2017-10-27T19:27:36.763Z,3.40
2017-10-27T19:30:04.993Z,2.30
2017-10-27T19:32:34.389Z,2.13
2017-10-27T19:35:02.808Z,2.40
2017-10-27T19:37:31.077Z,2.37
2017-10-27T19:39:59.324Z,2.40
2017-10-27T19:42:27.666Z,2.00
2017-10-27T19:44:55.949Z,1.97
2017-10-27T19:47:24.199Z,2.20
2017-10-27T19:49:52.494Z,2.20
2017-10-27T19:52:20.733Z,2.50
2017-10-27T19:54:49.055Z,2.20
2017-10-27T19:57:23.137Z,2.67
2017-10-27T20:03:02.584Z,2.70
2017-10-27T20:05:30.929Z,2.77
2017-10-27T20:07:59.221Z,2.27
2017-10-27T20:10:27.741Z,2.23
2017-10-27T20:12:56.037Z,2.00
2017-10-27T20:15:24.612Z,2.10
2017-10-27T20:17:53.503Z,2.40
2017-10-27T20:20:22.277Z,2.20
2017-10-27T20:22:50.746Z,2.33
2017-10-27T20:25:19.730Z,2.00
2017-10-27T20:27:49.753Z,1.93
2017-10-27T20:30:18.701Z,2.20
2017-10-27T20:32:47.973Z,2.23
2017-10-27T20:35:16.283Z,2.10
2017-10-27T20:37:44.537Z,1.70
2017-10-27T20:40:13.229Z,1.83
2017-10-27T20:42:41.886Z,2.20
2017-10-27T20:45:10.259Z,1.50
2017-10-27T20:47:38.588Z,1.97
2017-10-27T20:50:10.412Z,1.67
2017-10-27T20:52:40.342Z,1.90
2017-10-27T20:55:08.993Z,1.87
2017-10-27T20:57:37.251Z,1.77
2017-10-27T21:00:06.376Z,1.70
2017-10-27T21:02:34.879Z,2.07
2017-10-27T21:05:05.425Z,1.83
2017-10-27T21:07:34.132Z,2.00
2017-10-27T21:10:02.638Z,1.80
2017-10-27T21:12:30.958Z,2.20
2017-10-27T21:14:59.358Z,1.90
2017-10-27T21:17:27.648Z,1.80
2017-10-27T21:19:56.092Z,2.07
2017-10-27T21:22:24.576Z,1.70
2017-10-27T21:24:52.874Z,1.80
2017-10-27T21:27:21.627Z,2.07
2017-10-27T21:29:50.010Z,1.90
2017-10-27T21:32:18.292Z,1.80
2017-10-27T21:34:46.907Z,1.63
2017-10-27T21:37:15.334Z,1.63
2017-10-27T21:39:43.798Z,1.80
2017-10-27T21:42:12.188Z,2.03
2017-10-27T21:44:40.624Z,2.77
2017-10-27T21:47:08.993Z,2.00
2017-10-27T21:49:37.351Z,1.80
2017-10-27T21:52:05.718Z,1.77
2017-10-27T21:54:35.278Z,1.70
2017-10-27T21:57:07.500Z,2.10
2017-10-27T21:59:35.990Z,1.80
2017-10-27T22:02:04.904Z,1.83
2017-10-27T22:04:33.714Z,1.60
2017-10-27T22:07:02.672Z,1.70
2017-10-27T22:09:31.667Z,1.90
2017-10-27T22:12:00.539Z,1.70
2017-10-27T22:14:29.692Z,1.80
2017-10-27T22:16:58.441Z,1.50
2017-10-27T22:19:26.737Z,1.67
2017-10-27T22:21:55.110Z,2.07
2017-10-27T22:24:23.391Z,1.40
2017-10-27T22:26:51.693Z,1.77
2017-10-27T22:29:19.970Z,2.13
2017-10-27T22:31:48.535Z,1.67
2017-10-27T22:34:16.858Z,1.77
2017-10-27T22:36:45.108Z,1.90
2017-10-27T22:39:13.442Z,2.23
2017-10-27T22:41:41.846Z,1.40
2017-10-27T22:44:10.243Z,1.53
2017-10-27T22:46:38.505Z,1.60
2017-10-27T22:49:06.934Z,1.70
2017-10-27T22:51:37.673Z,1.60
2017-10-27T22:54:06.329Z,1.50
2017-10-27T22:56:34.593Z,1.37
2017-10-27T22:59:02.869Z,1.40
2017-10-27T23:01:31.186Z,1.53
2017-10-27T23:03:59.582Z,1.60
2017-10-27T23:06:27.849Z,1.50
2017-10-27T23:08:56.125Z,1.50
2017-10-27T23:11:24.375Z,1.60
2017-10-27T23:13:52.710Z,1.40
2017-10-27T23:16:20.963Z,1.20
2017-10-27T23:18:49.244Z,1.40
2017-10-27T23:21:17.549Z,1.50
2017-10-27T23:23:45.794Z,1.50
2017-10-27T23:26:14.048Z,1.60
2017-10-27T23:28:42.324Z,1.73
2017-10-27T23:31:10.638Z,1.20
2017-10-27T23:33:39.130Z,1.20
2017-10-27T23:36:08.302Z,1.20
2017-10-27T23:38:36.597Z,1.27
2017-10-27T23:41:04.925Z,1.60
2017-10-27T23:43:33.612Z,1.30
2017-10-27T23:46:02.324Z,1.63
2017-10-27T23:48:30.573Z,1.40
2017-10-27T23:50:59.226Z,1.80
2017-10-27T23:53:27.588Z,1.27
2017-10-27T23:55:55.868Z,1.63
2017-10-27T23:58:24.130Z,1.50
